Time,TemperatureF,DewpointF,PressureIn,WindDirection,WindDirectionDegrees,WindSpeedMPH,WindSpeedGustMPH,Humidity,HourlyPrecipIn,Conditions,Clouds,dailyrainin,SoftwareType,DateUTC
2013-09-22 10:01:00,47.1,42.2,29.94,North,0,0.0,0.0,83,0.00,,,0.00,WUHU21623XXSP,2013-09-22 15:01:00,
2013-09-22 10:02:00,47.1,42.2,29.94,North,0,0.0,0.0,83,0.00,,,0.00,WUHU21623XXSP,2013-09-22 15:02:00,
2013-09-22 10:07:00,47.1,41.9,29.94,SE,135,0.0,8.7,82,0.00,,,0.00,WUHU21623XXSP,2013-09-22 15:07:00,
2013-09-22 10:12:00,47.5,42.2,29.94,SE,135,0.0,8.7,82,0.00,,,0.00,WUHU21623XXSP,2013-09-22 15:12:00,
2013-09-22 10:17:00,48.0,42.7,29.94,SSW,202,2.2,6.0,82,0.00,,,0.00,WUHU21623XXSP,2013-09-22 15:17:00,
2013-09-22 10:22:00,48.7,43.4,29.94,South,180,4.5,6.0,82,0.00,,,0.00,WUHU21623XXSP,2013-09-22 15:22:00,
2013-09-22 10:27:00,48.6,42.6,29.94,South,180,0.0,8.7,80,0.00,,,0.00,WUHU21623XXSP,2013-09-22 15:27:00,
2013-09-22 10:32:00,48.9,43.0,29.94,SE,135,4.3,8.7,80,0.00,,,0.00,WUHU21623XXSP,2013-09-22 15:32:00,
2013-09-22 10:37:00,49.6,43.7,29.94,ENE,67,0.0,5.4,80,0.00,,,0.00,WUHU21623XXSP,2013-09-22 15:37:00,
2013-09-22 10:42:00,50.2,43.2,29.94,SSE,157,2.2,4.9,77,0.00,,,0.00,WUHU21623XXSP,2013-09-22 15:42:00,
2013-09-22 10:47:00,50.2,43.6,29.94,ESE,112,3.8,7.2,78,0.00,,,0.00,WUHU21623XXSP,2013-09-22 15:47:00,
2013-09-22 10:52:00,50.4,43.4,29.94,ENE,67,2.7,7.2,77,0.00,,,0.00,WUHU21623XXSP,2013-09-22 15:52:00,
2013-09-22 10:57:00,50.7,43.8,29.93,SSE,157,5.1,5.8,77,0.00,,,0.00,WUHU21623XXSP,2013-09-22 15:57:00,
2013-09-22 11:02:00,52.0,44.0,29.93,SSW,202,0.0,5.6,74,0.00,,,0.00,WUHU21623XXSP,2013-09-22 16:02:00,
2013-09-22 11:07:00,52.2,43.4,29.93,SE,135,2.5,6.9,72,0.00,,,0.00,WUHU21623XXSP,2013-09-22 16:07:00,
2013-09-22 11:12:00,52.0,43.3,29.93,NE,45,3.1,6.9,72,0.00,,,0.00,WUHU21623XXSP,2013-09-22 16:12:00,
2013-09-22 11:17:00,52.3,43.6,29.93,SSE,157,2.9,7.4,72,0.00,,,0.00,WUHU21623XXSP,2013-09-22 16:17:00,
2013-09-22 11:22:00,52.5,44.1,29.93,ESE,112,0.0,7.4,73,0.00,,,0.00,WUHU21623XXSP,2013-09-22 16:22:00,
2013-09-22 11:27:00,53.1,43.6,29.93,SSE,157,5.6,6.7,70,0.00,,,0.00,WUHU21623XXSP,2013-09-22 16:27:00,
2013-09-22 11:32:00,52.9,43.8,29.92,SSE,157,3.1,7.8,71,0.00,,,0.00,WUHU21623XXSP,2013-09-22 16:32:00,
2013-09-22 11:37:00,54.3,44.4,29.92,South,180,8.1,8.1,69,0.00,,,0.00,WUHU21623XXSP,2013-09-22 16:37:00,
2013-09-22 11:42:00,53.6,43.3,29.92,SW,225,0.0,8.3,68,0.00,,,0.00,WUHU21623XXSP,2013-09-22 16:42:00,
2013-09-22 11:47:00,54.3,43.6,29.91,SSE,157,6.7,8.5,67,0.00,,,0.00,WUHU21623XXSP,2013-09-22 16:47:00,
2013-09-22 11:52:00,54.5,43.7,29.92,SE,135,0.0,8.5,67,0.00,,,0.00,WUHU21623XXSP,2013-09-22 16:52:00,
2013-09-22 11:57:00,55.2,44.4,29.91,SW,225,5.4,7.8,67,0.00,,,0.00,WUHU21623XXSP,2013-09-22 16:57:00,
2013-09-22 12:02:00,54.5,43.3,29.92,SE,135,0.0,8.7,66,0.00,,,0.00,WUHU21623XXSP,2013-09-22 17:02:00,
2013-09-22 12:07:00,55.0,44.3,29.91,SE,135,7.8,8.7,67,0.00,,,0.00,WUHU21623XXSP,2013-09-22 17:07:00,
2013-09-22 12:12:00,55.0,43.4,29.92,South,180,4.9,7.8,65,0.00,,,0.00,WUHU21623XXSP,2013-09-22 17:12:00,
2013-09-22 12:17:00,55.2,43.6,29.92,South,180,2.7,7.4,65,0.00,,,0.00,WUHU21623XXSP,2013-09-22 17:17:00,
2013-09-22 12:22:00,55.9,44.7,29.91,SE,135,6.7,7.4,66,0.00,,,0.00,WUHU21623XXSP,2013-09-22 17:22:00,
2013-09-22 12:27:00,56.3,43.8,29.91,SE,135,3.6,6.7,63,0.00,,,0.00,WUHU21623XXSP,2013-09-22 17:27:00,
2013-09-22 12:32:00,56.1,44.1,29.91,NW,315,0.0,7.4,64,0.00,,,0.00,WUHU21623XXSP,2013-09-22 17:32:00,
2013-09-22 12:37:00,56.1,43.6,29.91,SSE,157,1.6,7.4,63,0.00,,,0.00,WUHU21623XXSP,2013-09-22 17:37:00,
2013-09-22 12:42:00,55.6,43.1,29.91,ESE,112,8.3,8.3,63,0.00,,,0.00,WUHU21623XXSP,2013-09-22 17:42:00,
2013-09-22 12:47:00,55.2,43.2,29.90,SE,135,1.6,8.3,64,0.00,,,0.00,WUHU21623XXSP,2013-09-22 17:47:00,
2013-09-22 12:52:00,55.6,43.1,29.91,South,180,1.6,8.3,63,0.00,,,0.00,WUHU21623XXSP,2013-09-22 17:52:00,
2013-09-22 12:57:00,56.1,43.3,29.91,SE,135,2.9,8.3,62,0.00,,,0.00,WUHU21623XXSP,2013-09-22 17:57:00,
2013-09-22 13:02:00,55.9,43.1,29.90,SE,135,1.3,7.8,62,0.00,,,0.00,WUHU21623XXSP,2013-09-22 18:02:00,
2013-09-22 13:07:00,56.5,43.2,29.90,ENE,67,5.4,9.8,61,0.00,,,0.00,WUHU21623XXSP,2013-09-22 18:07:00,
2013-09-22 13:12:00,56.1,42.8,29.90,SSW,202,3.1,9.8,61,0.00,,,0.00,WUHU21623XXSP,2013-09-22 18:12:00,
2013-09-22 13:17:00,57.0,43.7,29.90,SE,135,5.4,7.8,61,0.00,,,0.00,WUHU21623XXSP,2013-09-22 18:17:00,
2013-09-22 13:22:00,56.3,43.4,29.90,South,180,4.0,11.0,62,0.00,,,0.00,WUHU21623XXSP,2013-09-22 18:22:00,
2013-09-22 13:27:00,56.5,43.2,29.89,ENE,67,7.6,11.0,61,0.00,,,0.00,WUHU21623XXSP,2013-09-22 18:27:00,
2013-09-22 13:32:00,56.5,43.6,29.89,South,180,3.4,8.9,62,0.00,,,0.00,WUHU21623XXSP,2013-09-22 18:32:00,
2013-09-22 13:37:00,56.8,43.6,29.89,SSE,157,8.5,10.7,61,0.00,,,0.00,WUHU21623XXSP,2013-09-22 18:37:00,
2013-09-22 13:42:00,57.7,44.0,29.88,SSE,157,2.2,10.7,60,0.00,,,0.00,WUHU21623XXSP,2013-09-22 18:42:00,
2013-09-22 13:47:00,57.7,43.5,29.88,SE,135,3.6,6.7,59,0.00,,,0.00,WUHU21623XXSP,2013-09-22 18:47:00,
2013-09-22 13:52:00,57.7,44.0,29.88,SE,135,8.1,8.3,60,0.00,,,0.00,WUHU21623XXSP,2013-09-22 18:52:00,
2013-09-22 13:57:00,57.4,44.5,29.88,South,180,0.9,8.7,62,0.00,,,0.00,WUHU21623XXSP,2013-09-22 18:57:00,
2013-09-22 14:02:00,57.9,43.7,29.88,SW,225,0.0,8.7,59,0.00,,,0.00,WUHU21623XXSP,2013-09-22 19:02:00,
2013-09-22 14:07:00,58.8,44.0,29.88,NNE,22,6.0,6.5,58,0.00,,,0.00,WUHU21623XXSP,2013-09-22 19:07:00,
2013-09-22 14:12:00,58.3,45.3,29.88,South,180,5.8,6.5,62,0.00,,,0.00,WUHU21623XXSP,2013-09-22 19:12:00,
2013-09-22 14:17:00,58.3,44.0,29.88,SE,135,2.0,7.2,59,0.00,,,0.00,WUHU21623XXSP,2013-09-22 19:17:00,
2013-09-22 14:22:00,58.3,44.0,29.88,South,180,6.0,7.2,59,0.00,,,0.00,WUHU21623XXSP,2013-09-22 19:22:00,
2013-09-22 14:27:00,58.1,43.4,29.88,SE,135,1.8,7.4,58,0.00,,,0.00,WUHU21623XXSP,2013-09-22 19:27:00,
2013-09-22 14:32:00,57.9,43.2,29.88,SSE,157,2.7,7.4,58,0.00,,,0.00,WUHU21623XXSP,2013-09-22 19:32:00,
2013-09-22 14:38:00,57.9,42.8,29.88,East,90,1.6,11.4,57,0.00,,,0.00,WUHU21623XXSP,2013-09-22 19:38:00,
2013-09-22 14:43:00,57.9,43.7,29.88,South,180,0.0,11.4,59,0.00,,,0.00,WUHU21623XXSP,2013-09-22 19:43:00,
2013-09-22 14:48:00,58.6,44.3,29.88,SSE,157,0.0,7.6,59,0.00,,,0.00,WUHU21623XXSP,2013-09-22 19:48:00,
2013-09-22 14:53:00,58.8,43.1,29.87,SSW,202,2.5,7.6,56,0.00,,,0.00,WUHU21623XXSP,2013-09-22 19:53:00,
2013-09-22 14:58:00,58.8,44.0,29.87,SE,135,4.0,9.2,58,0.00,,,0.00,WUHU21623XXSP,2013-09-22 19:58:00,
2013-09-22 15:03:00,58.8,43.6,29.87,SE,135,6.9,9.2,57,0.00,,,0.00,WUHU21623XXSP,2013-09-22 20:03:00,
2013-09-22 15:08:00,59.4,43.6,29.87,South,180,2.7,9.2,56,0.00,,,0.00,WUHU21623XXSP,2013-09-22 20:08:00,
2013-09-22 15:13:00,58.8,43.6,29.87,SSW,202,2.5,8.3,57,0.00,,,0.00,WUHU21623XXSP,2013-09-22 20:13:00,
2013-09-22 15:18:00,59.0,43.7,29.87,North,0,4.5,8.3,57,0.00,,,0.00,WUHU21623XXSP,2013-09-22 20:18:00,
2013-09-22 15:23:00,59.2,43.9,29.87,SE,135,2.5,8.3,57,0.00,,,0.00,WUHU21623XXSP,2013-09-22 20:23:00,
2013-09-22 15:28:00,58.8,43.6,29.87,SE,135,3.6,8.3,57,0.00,,,0.00,WUHU21623XXSP,2013-09-22 20:28:00,
2013-09-22 15:33:00,58.8,43.6,29.87,SSW,202,6.0,6.3,57,0.00,,,0.00,WUHU21623XXSP,2013-09-22 20:33:00,
2013-09-22 15:38:00,58.5,42.8,29.87,WSW,247,1.8,7.6,56,0.00,,,0.00,WUHU21623XXSP,2013-09-22 20:38:00,
2013-09-22 15:43:00,58.8,43.6,29.87,NNW,337,0.0,7.6,57,0.00,,,0.00,WUHU21623XXSP,2013-09-22 20:43:00,
2013-09-22 15:48:00,58.8,43.6,29.87,WSW,247,2.5,7.2,57,0.00,,,0.00,WUHU21623XXSP,2013-09-22 20:48:00,
2013-09-22 15:53:00,58.6,43.4,29.86,WSW,247,6.9,7.2,57,0.00,,,0.00,WUHU21623XXSP,2013-09-22 20:53:00,
2013-09-22 15:58:00,58.6,43.9,29.86,WSW,247,2.7,7.4,58,0.00,,,0.00,WUHU21623XXSP,2013-09-22 20:58:00,
2013-09-22 16:03:00,58.5,43.7,29.86,WSW,247,3.1,8.7,58,0.00,,,0.00,WUHU21623XXSP,2013-09-22 21:03:00,
2013-09-22 16:08:00,58.1,43.4,29.86,WSW,247,6.5,11.6,58,0.00,,,0.00,WUHU21623XXSP,2013-09-22 21:08:00,
2013-09-22 16:13:00,57.9,43.7,29.86,WSW,247,6.5,11.6,59,0.00,,,0.00,WUHU21623XXSP,2013-09-22 21:13:00,
2013-09-22 16:18:00,57.7,44.0,29.86,WSW,247,6.0,9.8,60,0.00,,,0.00,WUHU21623XXSP,2013-09-22 21:18:00,
2013-09-22 16:23:00,57.7,43.1,29.86,WSW,247,2.7,9.8,58,0.00,,,0.00,WUHU21623XXSP,2013-09-22 21:23:00,
2013-09-22 16:28:00,57.4,42.7,29.86,WSW,247,6.5,7.8,58,0.00,,,0.00,WUHU21623XXSP,2013-09-22 21:28:00,
2013-09-22 16:33:00,57.0,42.4,29.86,WSW,247,0.0,9.6,58,0.00,,,0.00,WUHU21623XXSP,2013-09-22 21:33:00,
2013-09-22 16:38:00,57.0,43.3,29.86,WSW,247,4.0,9.6,60,0.00,,,0.00,WUHU21623XXSP,2013-09-22 21:38:00,
2013-09-22 16:43:00,57.4,43.2,29.85,WSW,247,0.0,8.7,59,0.00,,,0.00,WUHU21623XXSP,2013-09-22 21:43:00,
2013-09-22 16:48:00,57.0,42.9,29.85,WSW,247,3.4,8.7,59,0.00,,,0.00,WUHU21623XXSP,2013-09-22 21:48:00,
2013-09-22 16:53:00,56.8,42.7,29.86,SSE,157,2.5,8.5,59,0.00,,,0.00,WUHU21623XXSP,2013-09-22 21:53:00,
2013-09-22 16:58:00,56.8,42.7,29.86,NNE,22,3.4,7.8,59,0.00,,,0.00,WUHU21623XXSP,2013-09-22 21:58:00,
2013-09-22 17:03:00,56.8,42.7,29.86,NNE,22,3.4,7.8,59,0.00,,,0.00,WUHU21623XXSP,2013-09-22 22:03:00,
2013-09-22 18:53:00,50.2,42.5,29.85,North,0,0.0,0.0,75,0.00,,,0.00,WUHU21623XXSP,2013-09-22 23:53:00,
2013-09-22 18:58:00,49.8,42.2,29.84,SE,135,2.9,7.2,75,0.00,,,0.00,WUHU21623XXSP,2013-09-22 23:58:00,
2013-09-22 19:03:00,49.3,42.0,29.84,SSE,157,2.0,7.2,76,0.00,,,0.00,WUHU21623XXSP,2013-09-23 00:03:00,
2013-09-22 19:08:00,49.3,41.6,29.84,SSE,157,0.0,6.0,75,0.00,,,0.00,WUHU21623XXSP,2013-09-23 00:08:00,
2013-09-22 19:13:00,48.9,42.0,29.84,NE,45,2.2,7.2,77,0.00,,,0.00,WUHU21623XXSP,2013-09-23 00:13:00,
2013-09-22 19:18:00,48.7,41.8,29.84,ESE,112,0.0,7.2,77,0.00,,,0.00,WUHU21623XXSP,2013-09-23 00:18:00,
2013-09-22 19:23:00,48.4,41.4,29.84,ENE,67,1.1,6.0,77,0.00,,,0.00,WUHU21623XXSP,2013-09-23 00:23:00,
2013-09-22 19:28:00,48.0,41.8,29.84,SE,135,0.0,4.9,79,0.00,,,0.00,WUHU21623XXSP,2013-09-23 00:28:00,
2013-09-22 19:33:00,47.5,41.3,29.84,ESE,112,4.9,5.1,79,0.00,,,0.00,WUHU21623XXSP,2013-09-23 00:33:00,
2013-09-22 19:38:00,47.7,41.1,29.84,ESE,112,0.7,6.3,78,0.00,,,0.00,WUHU21623XXSP,2013-09-23 00:38:00,
2013-09-22 19:43:00,47.5,40.9,29.84,SSE,157,1.1,6.3,78,0.00,,,0.00,WUHU21623XXSP,2013-09-23 00:43:00,
2013-09-22 19:48:00,47.1,41.0,29.84,SE,138,1.0,6.0,79,0.00,,,0.00,WUHU21623XXSP,2013-09-23 00:48:00,
2013-09-22 19:53:00,47.1,40.9,29.84,SE,135,0.0,7.4,79,0.00,,,0.00,WUHU21623XXSP,2013-09-23 00:53:00,
2013-09-22 19:58:00,46.9,40.8,29.84,SSE,157,1.1,8.3,79,0.00,,,0.00,WUHU21623XXSP,2013-09-23 00:58:00,
2013-09-22 20:03:00,46.6,40.8,29.84,SE,135,2.2,8.3,80,0.00,,,0.00,WUHU21623XXSP,2013-09-23 01:03:00,
2013-09-22 20:08:00,46.4,40.6,29.85,SE,135,1.6,5.8,80,0.00,,,0.00,WUHU21623XXSP,2013-09-23 01:08:00,
2013-09-22 20:13:00,46.2,40.5,29.85,SE,135,0.0,5.6,80,0.00,,,0.00,WUHU21623XXSP,2013-09-23 01:13:00,
2013-09-22 20:18:00,46.2,40.5,29.85,NE,45,0.0,4.3,80,0.00,,,0.00,WUHU21623XXSP,2013-09-23 01:18:00,
2013-09-22 20:23:00,46.0,40.3,29.85,SSE,157,0.0,4.3,80,0.00,,,0.00,WUHU21623XXSP,2013-09-23 01:23:00,
2013-09-22 20:28:00,45.9,40.4,29.85,South,180,0.0,3.1,81,0.00,,,0.00,WUHU21623XXSP,2013-09-23 01:28:00,
2013-09-22 20:33:00,45.7,40.2,29.84,SE,135,3.8,5.1,81,0.00,,,0.00,WUHU21623XXSP,2013-09-23 01:33:00,
2013-09-22 20:38:00,45.5,40.0,29.84,SE,135,0.0,5.1,81,0.00,,,0.00,WUHU21623XXSP,2013-09-23 01:38:00,
2013-09-22 20:43:00,45.3,40.2,29.85,NE,45,0.0,7.2,82,0.00,,,0.00,WUHU21623XXSP,2013-09-23 01:43:00,
2013-09-22 20:48:00,45.1,40.0,29.85,South,180,0.2,7.2,82,0.00,,,0.00,WUHU21623XXSP,2013-09-23 01:48:00,
2013-09-22 20:53:00,45.0,39.8,29.85,ESE,112,0.0,3.4,82,0.00,,,0.00,WUHU21623XXSP,2013-09-23 01:53:00,
2013-09-22 20:58:00,45.0,40.1,29.85,SSE,162,0.2,2.2,83,0.00,,,0.00,WUHU21623XXSP,2013-09-23 01:58:00,
2013-09-22 21:03:00,44.8,39.9,29.86,NE,45,0.0,4.3,83,0.00,,,0.00,WUHU21623XXSP,2013-09-23 02:03:00,
2013-09-22 21:08:00,44.8,40.0,29.86,SE,133,0.4,4.3,83,0.00,,,0.00,WUHU21623XXSP,2013-09-23 02:08:00,
2013-09-22 21:13:00,44.8,39.9,29.86,SSE,157,0.0,2.0,83,0.00,,,0.00,WUHU21623XXSP,2013-09-23 02:13:00,
2013-09-22 21:18:00,44.6,39.8,29.85,SSE,157,0.0,5.6,83,0.00,,,0.00,WUHU21623XXSP,2013-09-23 02:18:00,
2013-09-22 21:23:00,44.4,39.6,29.86,SE,135,0.0,5.6,83,0.00,,,0.00,WUHU21623XXSP,2013-09-23 02:23:00,
2013-09-22 21:28:00,44.4,39.6,29.86,ESE,112,0.0,0.3,83,0.00,,,0.00,WUHU21623XXSP,2013-09-23 02:28:00,
2013-09-22 21:33:00,44.2,39.7,29.86,ESE,112,0.0,3.1,84,0.00,,,0.00,WUHU21623XXSP,2013-09-23 02:33:00,
2013-09-22 21:38:00,44.4,39.9,29.85,SSE,157,1.3,3.1,84,0.00,,,0.00,WUHU21623XXSP,2013-09-23 02:38:00,
2013-09-22 21:43:00,44.4,39.9,29.86,SSE,157,0.0,4.3,84,0.00,,,0.00,WUHU21623XXSP,2013-09-23 02:43:00,
2013-09-22 21:48:00,44.4,39.9,29.86,SSE,157,0.0,4.3,84,0.00,,,0.00,WUHU21623XXSP,2013-09-23 02:48:00,
2013-09-22 21:53:00,44.4,39.9,29.86,East,90,0.0,4.3,84,0.00,,,0.00,WUHU21623XXSP,2013-09-23 02:53:00,
2013-09-22 21:58:00,44.4,39.9,29.86,SE,135,2.2,4.3,84,0.00,,,0.00,WUHU21623XXSP,2013-09-23 02:58:00,
2013-09-22 22:03:00,44.4,40.2,29.85,SE,135,0.0,4.9,85,0.00,,,0.00,WUHU21623XXSP,2013-09-23 03:03:00,
2013-09-22 22:08:00,44.4,40.2,29.85,SE,135,0.0,4.9,85,0.00,,,0.00,WUHU21623XXSP,2013-09-23 03:08:00,
2013-09-22 22:13:00,44.4,40.2,29.85,SSE,157,2.0,7.6,85,0.00,,,0.00,WUHU21623XXSP,2013-09-23 03:13:00,
2013-09-22 22:18:00,44.4,40.2,29.85,SSE,154,0.9,7.6,85,0.00,,,0.00,WUHU21623XXSP,2013-09-23 03:18:00,
2013-09-22 22:23:00,44.4,40.2,29.85,ESE,112,0.0,6.5,85,0.00,,,0.00,WUHU21623XXSP,2013-09-23 03:23:00,
2013-09-22 22:28:00,44.4,40.2,29.85,SE,135,0.0,6.5,85,0.00,,,0.00,WUHU21623XXSP,2013-09-23 03:28:00,
2013-09-22 22:33:00,44.4,40.2,29.85,South,180,5.1,5.1,85,0.00,,,0.00,WUHU21623XXSP,2013-09-23 03:33:00,
2013-09-22 22:38:00,44.4,40.5,29.85,SE,135,0.0,5.6,86,0.00,,,0.00,WUHU21623XXSP,2013-09-23 03:38:00,
2013-09-22 22:43:00,44.6,40.7,29.85,ESE,112,0.0,5.6,86,0.00,,,0.00,WUHU21623XXSP,2013-09-23 03:43:00,
2013-09-22 22:48:00,44.6,40.7,29.85,ENE,67,0.0,6.0,86,0.00,,,0.00,WUHU21623XXSP,2013-09-23 03:48:00,
2013-09-22 22:53:00,44.8,40.9,29.85,SE,135,0.0,6.3,86,0.00,,,0.00,WUHU21623XXSP,2013-09-23 03:53:00,
2013-09-22 22:58:00,45.0,41.0,29.85,SSE,147,1.1,6.3,86,0.00,,,0.00,WUHU21623XXSP,2013-09-23 03:58:00,
2013-09-22 23:01:00,45.0,41.0,29.85,SSE,157,0.0,4.9,86,0.00,,,0.00,WUHU21623XXSP,2013-09-23 04:01:00,
2013-09-22 23:06:00,45.0,41.0,29.85,SE,135,0.0,7.2,86,0.00,,,0.00,WUHU21623XXSP,2013-09-23 04:06:00,
2013-09-22 23:11:00,45.1,40.8,29.85,SE,140,1.2,7.2,85,0.00,,,0.00,WUHU21623XXSP,2013-09-23 04:11:00,
2013-09-22 23:16:00,45.1,40.9,29.85,SSE,157,0.0,6.5,85,0.00,,,0.00,WUHU21623XXSP,2013-09-23 04:16:00,
2013-09-22 23:21:00,45.3,41.1,29.85,ESE,112,0.0,7.6,85,0.00,,,0.00,WUHU21623XXSP,2013-09-23 04:21:00,
2013-09-22 23:26:00,45.3,41.1,29.85,SE,135,0.0,7.6,85,0.00,,,0.00,WUHU21623XXSP,2013-09-23 04:26:00,
2013-09-22 23:31:00,45.3,41.1,29.85,ESE,112,3.6,5.6,85,0.00,,,0.00,WUHU21623XXSP,2013-09-23 04:31:00,
2013-09-22 23:36:00,45.3,41.1,29.85,ESE,112,2.0,5.4,85,0.00,,,0.00,WUHU21623XXSP,2013-09-23 04:36:00,
2013-09-22 23:41:00,45.7,41.5,29.85,SSE,157,0.0,4.5,85,0.00,,,0.00,WUHU21623XXSP,2013-09-23 04:41:00,
2013-09-22 23:46:00,45.7,41.8,29.84,SSE,157,2.2,4.9,86,0.00,,,0.00,WUHU21623XXSP,2013-09-23 04:46:00,
2013-09-22 23:51:00,46.0,42.1,29.85,SE,135,0.0,4.9,86,0.00,,,0.00,WUHU21623XXSP,2013-09-23 04:51:00,
2013-09-22 23:56:00,45.7,41.8,29.84,SE,135,4.3,5.4,86,0.00,,,0.00,WUHU21623XXSP,2013-09-23 04:56:00,